Time;durP1;ratioP1;P1;durP2;ratioP2;P2;SDS_P1;SDS_P2;PMS_P1;PMS_P2;Temp;Humidity;BMP_temperature;BMP_pressure;BME280_temperature;BME280_humidity;BME280_pressure;Samples;Min_cycle;Max_cycle;Signal;HPM_P1;HPM_P2
2021/04/14 00:00:23;;;;;;;16.38;10.95;;;5.70;89.60;;;;;;5052431;28;20020;-60
2021/04/14 00:02:49;;;;;;;15.80;10.60;;;5.70;88.60;;;;;;5051912;28;20036;-60
2021/04/14 00:05:18;;;;;;;17.63;11.27;;;5.80;88.50;;;;;;5051094;28;20111;-60
2021/04/14 00:07:43;;;;;;;16.50;10.95;;;5.80;88.70;;;;;;5052537;28;20033;-60
2021/04/14 00:10:09;;;;;;;14.98;10.40;;;5.80;88.30;;;;;;5052539;28;20029;-60
2021/04/14 00:12:35;;;;;;;16.60;10.90;;;5.80;89.70;;;;;;5052115;28;20565;-60
2021/04/14 00:15:04;;;;;;;16.08;10.93;;;5.60;90.10;;;;;;5052583;28;20100;-60
2021/04/14 00:17:30;;;;;;;14.68;10.77;;;5.50;90.60;;;;;;5052223;28;20078;-60
2021/04/14 00:19:55;;;;;;;14.70;11.20;;;5.50;90.90;;;;;;5051876;28;20028;-60
2021/04/14 00:22:21;;;;;;;15.25;10.77;;;5.50;92.00;;;;;;5052225;28;20527;-60
2021/04/14 00:24:46;;;;;;;14.73;11.18;;;5.60;91.20;;;;;;5051943;28;20025;-60
2021/04/14 00:27:12;;;;;;;17.20;11.48;;;5.60;91.50;;;;;;5052069;28;20032;-60
2021/04/14 00:29:37;;;;;;;23.95;11.57;;;5.60;91.90;;;;;;5052110;28;20025;-60
2021/04/14 00:32:03;;;;;;;13.48;10.40;;;5.50;92.20;;;;;;5052153;28;20426;-60
2021/04/14 00:34:30;;;;;;;13.35;9.02;;;5.70;92.00;;;;;;5050580;28;20495;-61
2021/04/14 00:36:56;;;;;;;19.60;9.88;;;5.60;91.60;;;;;;5051994;28;20021;-61
2021/04/14 00:39:25;;;;;;;17.08;10.95;;;5.60;91.50;;;;;;5052511;28;20025;-61
2021/04/14 00:41:53;;;;;;;13.98;10.07;;;5.50;93.00;;;;;;5050948;28;20028;-61
2021/04/14 00:44:19;;;;;;;12.73;9.80;;;5.60;93.30;;;;;;5051710;28;20052;-61
2021/04/14 00:46:45;;;;;;;14.40;10.38;;;5.60;94.00;;;;;;5051666;28;20025;-60
2021/04/14 00:49:12;;;;;;;16.98;10.77;;;5.50;93.70;;;;;;5051749;28;20422;-61
2021/04/14 00:51:39;;;;;;;12.25;10.07;;;5.50;93.70;;;;;;5051630;28;20033;-60
2021/04/14 00:54:05;;;;;;;16.08;9.90;;;5.70;93.80;;;;;;5050343;28;20029;-60
2021/04/14 00:56:30;;;;;;;19.23;9.68;;;5.50;94.20;;;;;;5051221;28;20052;-60
2021/04/14 00:58:56;;;;;;;16.75;10.05;;;5.60;94.30;;;;;;5051065;28;20108;-60
2021/04/14 01:01:23;;;;;;;15.88;10.32;;;5.60;94.40;;;;;;5052264;28;20087;-61
2021/04/14 01:03:48;;;;;;;14.63;9.10;;;5.50;95.70;;;;;;5051614;28;20346;-61
2021/04/14 01:06:21;;;;;;;13.15;9.57;;;5.50;96.70;;;;;;5050032;28;20040;-61
2021/04/14 01:08:46;;;;;;;;;;;5.40;97.00;;;;;;5051888;28;20599;-61
2021/04/14 01:11:14;;;;;;;14.27;8.80;;;5.40;97.70;;;;;;5051595;28;19916;-61
2021/04/14 01:13:39;;;;;;;11.93;8.25;;;5.50;97.20;;;;;;5050249;28;20478;-61
2021/04/14 01:16:05;;;;;;;13.10;8.60;;;5.70;96.20;;;;;;5051608;28;20059;-61
2021/04/14 01:18:34;;;;;;;10.07;7.85;;;5.50;96.10;;;;;;5050926;28;20033;-61
2021/04/14 01:21:01;;;;;;;10.20;7.53;;;5.50;96.80;;;;;;5051050;28;20029;-61
2021/04/14 01:23:29;;;;;;;15.02;8.27;;;5.60;97.00;;;;;;5051076;28;20028;-61
2021/04/14 01:25:55;;;;;;;11.95;8.00;;;5.70;96.50;;;;;;5051000;28;20044;-61
2021/04/14 01:28:44;;;;;;;12.38;8.13;;;5.70;97.20;;;;;;5051176;28;20059;-61
2021/04/14 01:31:13;;;;;;;12.18;8.45;;;5.70;98.20;;;;;;5050736;28;20502;-61
2021/04/14 01:33:39;;;;;;;9.98;7.80;;;5.70;98.70;;;;;;5051182;28;20437;-61
2021/04/14 01:36:07;;;;;;;13.80;8.55;;;5.70;98.80;;;;;;5050869;28;20037;-61
2021/04/14 01:38:33;;;;;;;15.68;7.97;;;5.80;99.60;;;;;;5050690;28;20136;-61
2021/04/14 01:41:00;;;;;;;14.50;7.72;;;5.70;99.90;;;;;;5050862;28;20021;-61
2021/04/14 01:43:26;;;;;;;11.18;8.23;;;5.60;99.70;;;;;;5051017;28;20478;-61
2021/04/14 01:45:52;;;;;;;14.98;7.40;;;5.60;99.90;;;;;;5051043;28;20028;-60
2021/04/14 01:48:19;;;;;;;14.70;7.78;;;5.50;99.90;;;;;;5049497;28;20564;-60
2021/04/14 01:50:45;;;;;;;10.27;7.70;;;5.60;99.70;;;;;;5050991;28;20083;-60
2021/04/14 01:53:14;;;;;;;12.65;8.05;;;5.70;98.20;;;;;;5050813;28;20091;-60
2021/04/14 01:55:40;;;;;;;14.23;7.97;;;5.50;99.60;;;;;;5050407;28;20075;-60
2021/04/14 01:58:09;;;;;;;9.38;7.47;;;5.50;99.90;;;;;;5049739;28;20025;-60
2021/04/14 02:00:47;;;;;;;13.23;8.43;;;5.40;99.90;;;;;;5050645;28;20429;-60
2021/04/14 02:03:13;;;;;;;12.23;7.97;;;5.40;99.90;;;;;;5049450;28;20025;-60
2021/04/14 02:05:39;;;;;;;12.32;8.55;;;5.40;99.90;;;;;;5050802;28;20100;-60
2021/04/14 02:08:06;;;;;;;13.88;8.95;;;5.40;99.90;;;;;;5050784;28;20040;-60
2021/04/14 02:10:33;;;;;;;11.68;9.05;;;5.40;99.90;;;;;;5050683;28;20032;-61
2021/04/14 02:13:01;;;;;;;10.95;8.50;;;5.30;99.90;;;;;;5050464;28;20021;-61
2021/04/14 02:15:29;;;;;;;12.27;8.45;;;5.10;99.90;;;;;;5050086;28;20028;-61
2021/04/14 02:17:56;;;;;;;11.80;8.90;;;4.80;99.90;;;;;;5053355;28;20125;-61
2021/04/14 02:20:23;;;;;;;12.07;8.63;;;4.80;99.90;;;;;;5052792;28;20486;-60
2021/04/14 02:22:49;;;;;;;12.55;9.15;;;4.80;99.90;;;;;;5054105;28;20068;-60
2021/04/14 02:25:15;;;;;;;14.23;8.50;;;4.70;99.90;;;;;;5054499;28;20028;-60
2021/04/14 02:27:41;;;;;;;12.15;8.27;;;4.80;99.90;;;;;;5054317;28;20017;-60
2021/04/14 02:30:16;;;;;;;11.50;8.18;;;4.70;99.90;;;;;;5052941;28;20025;-61
2021/04/14 02:32:41;;;;;;;12.00;7.63;;;4.70;99.90;;;;;;5053993;28;20021;-61
2021/04/14 02:35:08;;;;;;;12.27;8.45;;;4.60;99.90;;;;;;5054013;28;20044;-61
2021/04/14 02:37:33;;;;;;;13.50;8.88;;;4.60;99.90;;;;;;5053834;28;20055;-60
2021/04/14 02:39:59;;;;;;;14.82;8.43;;;4.60;99.90;;;;;;5054409;28;20453;-60
2021/04/14 02:42:25;;;;;;;10.38;8.32;;;4.60;99.90;;;;;;5054173;28;20104;-60
2021/04/14 02:44:50;;;;;;;13.60;9.00;;;4.60;99.90;;;;;;5054151;28;20033;-61
2021/04/14 02:47:16;;;;;;;13.00;8.55;;;4.50;99.90;;;;;;5053890;28;20055;-60
2021/04/14 02:49:41;;;;;;;13.60;8.82;;;4.60;99.90;;;;;;5053762;28;20063;-60
2021/04/14 02:52:07;;;;;;;18.27;9.23;;;4.60;99.90;;;;;;5053799;28;20017;-60
2021/04/14 02:54:33;;;;;;;25.08;9.52;;;4.60;99.90;;;;;;5052821;28;20052;-60
2021/04/14 02:56:58;;;;;;;14.93;9.43;;;4.60;99.90;;;;;;5053383;28;20047;-60
2021/04/14 02:59:24;;;;;;;12.20;9.52;;;4.50;99.90;;;;;;5053714;28;20025;-60
2021/04/14 03:01:49;;;;;;;16.45;9.85;;;4.30;99.90;;;;;;5053410;28;20017;-60
2021/04/14 03:04:16;;;;;;;18.17;10.20;;;4.10;99.90;;;;;;5053475;28;20021;-60
2021/04/14 03:06:42;;;;;;;16.08;9.75;;;4.10;99.90;;;;;;5053814;28;20967;-60
2021/04/14 03:09:08;;;;;;;18.58;10.52;;;4.00;99.90;;;;;;5053381;28;20025;-60
2021/04/14 03:11:34;;;;;;;14.25;10.30;;;4.00;99.90;;;;;;5052900;28;20036;-60
2021/04/14 03:13:59;;;;;;;15.77;11.13;;;3.90;99.90;;;;;;5052376;28;20063;-60
2021/04/14 03:16:26;;;;;;;18.00;11.35;;;3.90;99.90;;;;;;5053628;28;20112;-60
2021/04/14 03:18:52;;;;;;;16.95;10.52;;;3.80;99.90;;;;;;5053363;28;20027;-60
2021/04/14 03:21:18;;;;;;;13.73;10.65;;;3.80;99.90;;;;;;5053298;28;20031;-61
2021/04/14 03:23:44;;;;;;;15.13;11.10;;;3.90;99.90;;;;;;5053178;28;20454;-61
2021/04/14 03:26:09;;;;;;;14.95;10.85;;;3.80;99.90;;;;;;5053304;28;20060;-61
2021/04/14 03:28:35;;;;;;;15.88;11.18;;;3.80;99.90;;;;;;5052668;28;20489;-61
2021/04/14 03:31:00;;;;;;;18.33;11.63;;;3.80;99.90;;;;;;5053254;28;20064;-60
2021/04/14 03:33:26;;;;;;;24.58;11.68;;;4.00;99.90;;;;;;5053189;28;20060;-60
2021/04/14 03:35:53;;;;;;;17.20;11.02;;;4.00;99.90;;;;;;5053058;28;20096;-60
2021/04/14 03:38:19;;;;;;;15.80;10.77;;;3.90;99.90;;;;;;5053267;28;20029;-60
2021/04/14 03:40:44;;;;;;;17.48;11.40;;;3.90;99.90;;;;;;5052947;28;20040;-60
2021/04/14 03:43:10;;;;;;;19.35;11.25;;;3.90;99.90;;;;;;5052899;28;20029;-60
2021/04/14 03:45:42;;;;;;;21.27;11.90;;;4.00;99.90;;;;;;5053063;28;20086;-60
2021/04/14 03:48:09;;;;;;;23.52;10.85;;;4.00;99.90;;;;;;5051760;28;20029;-60
2021/04/14 03:50:35;;;;;;;23.25;10.93;;;3.90;99.90;;;;;;5051259;28;20082;-61
2021/04/14 03:53:09;;;;;;;18.98;10.93;;;3.90;99.90;;;;;;5052559;28;20540;-61
2021/04/14 03:55:34;;;;;;;19.23;10.60;;;3.80;99.90;;;;;;5052083;28;20063;-61
2021/04/14 03:58:00;;;;;;;13.73;10.45;;;3.80;99.90;;;;;;5051163;28;20028;-61
2021/04/14 04:00:26;;;;;;;19.17;11.48;;;3.90;99.90;;;;;;5051263;28;20013;-61
2021/04/14 04:02:51;;;;;;;19.42;10.90;;;4.00;99.90;;;;;;5052776;28;20466;-61
2021/04/14 04:05:17;;;;;;;19.35;10.90;;;4.10;99.90;;;;;;5052203;28;20130;-61
2021/04/14 04:07:42;;;;;;;13.75;9.98;;;4.10;99.90;;;;;;5050901;28;20037;-61
2021/04/14 04:10:09;;;;;;;20.23;10.27;;;4.30;99.90;;;;;;5052749;28;20033;-61
2021/04/14 04:12:35;;;;;;;21.80;11.88;;;4.30;99.90;;;;;;5052428;28;20032;-61
2021/04/14 04:15:01;;;;;;;17.08;10.80;;;4.30;99.90;;;;;;5051066;28;20021;-61
2021/04/14 04:17:26;;;;;;;21.00;11.15;;;4.20;99.90;;;;;;5051148;28;20469;-61
2021/04/14 04:19:52;;;;;;;19.80;10.25;;;4.10;99.90;;;;;;5052801;28;20017;-61
2021/04/14 04:22:19;;;;;;;13.60;10.68;;;4.20;99.90;;;;;;5052469;28;20056;-61
2021/04/14 04:24:47;;;;;;;15.10;10.55;;;4.20;99.90;;;;;;5052231;28;20025;-61
2021/04/14 04:27:13;;;;;;;16.42;11.02;;;4.20;99.90;;;;;;5052364;28;20379;-61
2021/04/14 04:29:39;;;;;;;21.13;11.30;;;4.10;99.90;;;;;;5052003;28;20048;-61
2021/04/14 04:32:05;;;;;;;15.77;10.93;;;4.00;99.90;;;;;;5051463;28;20112;-61
2021/04/14 04:34:30;;;;;;;16.92;10.80;;;3.90;99.90;;;;;;5051762;28;20028;-61
2021/04/14 04:36:56;;;;;;;14.23;10.32;;;3.70;99.90;;;;;;5052362;28;20074;-61
2021/04/14 04:39:21;;;;;;;18.55;12.07;;;3.80;99.90;;;;;;5051340;28;20131;-61
2021/04/14 04:41:47;;;;;;;20.83;11.10;;;3.80;99.90;;;;;;5051924;28;20013;-60
2021/04/14 04:44:13;;;;;;;16.45;10.30;;;3.60;99.90;;;;;;5051953;28;20025;-60
2021/04/14 04:46:39;;;;;;;17.02;11.10;;;3.30;99.90;;;;;;5051815;28;20052;-60
2021/04/14 04:49:04;;;;;;;19.13;11.40;;;3.30;99.90;;;;;;5051582;28;20059;-60
2021/04/14 04:51:30;;;;;;;23.10;10.65;;;3.30;99.90;;;;;;5051463;28;20033;-60
2021/04/14 04:53:56;;;;;;;19.80;10.88;;;3.30;99.90;;;;;;5051554;28;20052;-61
2021/04/14 04:56:22;;;;;;;24.98;11.45;;;3.40;99.90;;;;;;5051326;28;20485;-60
2021/04/14 04:58:48;;;;;;;20.52;11.70;;;3.50;99.90;;;;;;5050245;28;20032;-60
2021/04/14 05:01:14;;;;;;;18.10;10.52;;;3.30;99.90;;;;;;5051055;28;20080;-60
2021/04/14 05:03:40;;;;;;;19.67;10.85;;;3.10;99.90;;;;;;5051660;28;20036;-60
2021/04/14 05:06:06;;;;;;;17.20;10.85;;;3.10;99.90;;;;;;5050524;28;20024;-60
2021/04/14 05:08:31;;;;;;;19.25;11.07;;;3.10;99.90;;;;;;5051596;28;20111;-60
2021/04/14 05:10:57;;;;;;;18.58;10.90;;;3.10;99.90;;;;;;5051628;28;20504;-60
2021/04/14 05:13:23;;;;;;;25.15;11.77;;;3.10;99.90;;;;;;5051682;28;20029;-60
2021/04/14 05:15:49;;;;;;;17.52;12.05;;;3.20;99.90;;;;;;5051256;28;20042;-61
2021/04/14 05:18:15;;;;;;;19.33;11.13;;;3.30;99.90;;;;;;5049893;28;20024;-61
2021/04/14 05:20:41;;;;;;;15.38;10.88;;;3.20;99.90;;;;;;5051283;28;20493;-60
2021/04/14 05:23:08;;;;;;;19.58;11.48;;;3.30;99.90;;;;;;5050245;28;20040;-60
2021/04/14 05:25:39;;;;;;;17.73;10.95;;;3.30;99.90;;;;;;5049811;28;20032;-60
2021/04/14 05:28:08;;;;;;;15.13;11.13;;;3.20;99.90;;;;;;5050173;28;20430;-60
2021/04/14 05:30:35;;;;;;;22.13;10.82;;;3.20;99.90;;;;;;5051354;28;20104;-61
2021/04/14 05:33:01;;;;;;;18.08;10.95;;;3.20;99.90;;;;;;5051049;28;20477;-60
2021/04/14 05:35:27;;;;;;;18.67;12.02;;;3.10;99.90;;;;;;5049707;28;20510;-60
2021/04/14 05:37:56;;;;;;;21.30;12.60;;;3.10;99.90;;;;;;5051144;28;20021;-60
2021/04/14 05:40:23;;;;;;;22.50;13.02;;;3.30;99.90;;;;;;5051248;28;20029;-61
2021/04/14 05:42:49;;;;;;;21.88;13.52;;;3.50;99.90;;;;;;5051151;28;20104;-61
2021/04/14 05:45:19;;;;;;;22.48;12.90;;;3.70;99.90;;;;;;5051120;28;20523;-60
2021/04/14 05:47:45;;;;;;;21.40;13.55;;;3.60;99.90;;;;;;5051181;28;20021;-60
2021/04/14 05:50:14;;;;;;;18.80;12.65;;;3.60;99.90;;;;;;5050910;28;20029;-60
2021/04/14 05:52:40;;;;;;;22.83;14.88;;;3.50;99.90;;;;;;5054989;28;20005;-60
2021/04/14 05:55:06;;;;;;;24.52;14.05;;;3.60;99.90;;;;;;5053666;28;20559;-60
2021/04/14 05:57:32;;;;;;;20.13;14.35;;;3.70;99.90;;;;;;5054531;28;20048;-60
2021/04/14 05:59:57;;;;;;;29.20;14.25;;;3.60;99.90;;;;;;5054800;28;20474;-60
2021/04/14 06:02:23;;;;;;;21.90;12.60;;;3.40;99.90;;;;;;5054509;28;20127;-60
2021/04/14 06:04:51;;;;;;;23.25;13.77;;;3.20;99.90;;;;;;5054840;28;20028;-60
2021/04/14 06:07:17;;;;;;;20.60;12.80;;;3.10;99.90;;;;;;5055330;28;20473;-60
2021/04/14 06:09:44;;;;;;;26.77;14.77;;;3.20;99.90;;;;;;5055289;28;20110;-60
2021/04/14 06:12:11;;;;;;;21.92;15.15;;;3.30;99.90;;;;;;5055145;28;20021;-60
2021/04/14 06:14:36;;;;;;;29.88;17.25;;;3.30;99.90;;;;;;5053982;28;20029;-60
2021/04/14 06:17:02;;;;;;;34.63;18.25;;;3.30;99.90;;;;;;5055105;28;20144;-60
2021/04/14 06:19:28;;;;;;;31.63;17.80;;;3.40;99.90;;;;;;5054631;28;20090;-61
2021/04/14 06:21:54;;;;;;;29.83;17.23;;;3.40;99.90;;;;;;5054762;28;20029;-60
2021/04/14 06:24:19;;;;;;;27.05;16.75;;;3.40;99.90;;;;;;5054279;28;20374;-60
2021/04/14 06:26:54;;;;;;;29.30;16.73;;;3.40;99.90;;;;;;5053397;28;20355;-60
2021/04/14 06:29:19;;;;;;;35.78;17.30;;;3.50;99.90;;;;;;5054812;28;20406;-60
2021/04/14 06:31:45;;;;;;;31.40;16.83;;;3.60;99.90;;;;;;5053516;28;20036;-60
2021/04/14 06:34:16;;;;;;;28.35;16.17;;;3.70;99.90;;;;;;5054427;28;20051;-61
2021/04/14 06:36:47;;;;;;;26.30;14.77;;;4.00;99.90;;;;;;5054505;28;20107;-61
2021/04/14 06:39:15;;;;;;;22.40;14.15;;;4.30;99.90;;;;;;5052995;28;20492;-61
2021/04/14 06:42:11;;;;;;;21.13;13.00;;;4.50;99.90;;;;;;5054212;28;20049;-61
2021/04/14 06:45:01;;;;;;;21.77;14.52;;;4.80;99.90;;;;;;5054053;28;20086;-61
2021/04/14 06:47:50;;;;;;;22.30;14.20;;;5.10;99.90;;;;;;5054487;28;20029;-61
2021/04/14 06:50:23;;;;;;;21.45;13.77;;;5.30;99.90;;;;;;5054118;28;20021;-61
2021/04/14 06:53:07;;;;;;;20.60;13.98;;;5.30;99.90;;;;;;5054301;28;20075;-61
2021/04/14 06:55:46;;;;;;;18.08;12.75;;;5.20;99.90;;;;;;5054095;28;20028;-61
2021/04/14 06:58:19;;;;;;;21.17;13.27;;;5.10;99.90;;;;;;5054333;28;20104;-60
2021/04/14 07:00:51;;;;;;;19.20;14.27;;;5.10;99.90;;;;;;5054222;28;20080;-61
2021/04/14 07:03:22;;;;;;;23.17;14.52;;;5.20;99.90;;;;;;5053534;28;20359;-61
2021/04/14 07:05:54;;;;;;;26.30;15.02;;;5.30;99.90;;;;;;5053844;28;20126;-61
2021/04/14 07:08:27;;;;;;;23.30;15.70;;;5.50;99.90;;;;;;5054043;28;20021;-61
2021/04/14 07:10:56;;;;;;;51.00;26.42;;;5.80;99.90;;;;;;5054239;28;20620;-61
2021/04/14 07:13:22;;;;;;;59.70;40.42;;;5.90;99.90;;;;;;5054092;28;20025;-61
2021/04/14 07:15:51;;;;;;;84.00;63.45;;;5.90;99.90;;;;;;5053979;28;20496;-61
2021/04/14 07:18:32;;;;;;;98.28;72.78;;;6.00;99.90;;;;;;5055218;28;20025;-61
2021/04/14 07:21:30;;;;;;;79.60;60.25;;;6.20;99.90;;;;;;5053786;28;20032;-61
2021/04/14 07:24:02;;;;;;;150.32;120.10;;;6.50;99.90;;;;;;5048595;28;20029;-61
2021/04/14 07:26:37;;;;;;;133.53;104.50;;;6.30;99.90;;;;;;5053897;28;20429;-61
2021/04/14 07:29:21;;;;;;;145.52;118.65;;;5.90;99.90;;;;;;5052331;28;20552;-61
2021/04/14 07:31:55;;;;;;;197.15;160.57;;;5.80;99.90;;;;;;5053113;28;20104;-60
2021/04/14 07:34:42;;;;;;;139.23;105.47;;;5.80;99.90;;;;;;5053329;28;20071;-60
2021/04/14 07:37:25;;;;;;;31.20;22.92;;;6.10;99.90;;;;;;5070241;28;20465;-61
2021/04/14 07:40:18;;;;;;;33.08;18.95;;;6.90;99.90;;;;;;5072633;28;20115;-61
2021/04/14 07:43:05;;;;;;;24.13;14.43;;;7.60;99.90;;;;;;5072752;28;20040;-62
2021/04/14 07:45:35;;;;;;;16.60;11.98;;;8.70;99.90;;;;;;5072703;28;20399;-62
2021/04/14 07:48:09;;;;;;;16.50;12.32;;;9.10;99.90;;;;;;5073198;28;20469;-62
2021/04/14 07:50:49;;;;;;;13.05;9.65;;;8.80;99.90;;;;;;5073572;28;20603;-61
2021/04/14 07:53:26;;;;;;;12.68;9.15;;;8.30;99.90;;;;;;5070903;28;20086;-61
2021/04/14 07:56:02;;;;;;;13.07;9.50;;;8.70;99.90;;;;;;5071861;28;20052;-61
2021/04/14 07:58:28;;;;;;;14.95;9.98;;;10.40;99.90;;;;;;5070879;28;20546;-62
2021/04/14 08:00:54;;;;;;;11.80;9.23;;;11.20;97.20;;;;;;5072063;28;20052;-62
2021/04/14 08:03:30;;;;;;;14.10;9.93;;;11.50;96.40;;;;;;5071902;28;20067;-62
2021/04/14 08:06:27;;;;;;;11.27;8.90;;;12.10;93.20;;;;;;5072566;28;20041;-61
2021/04/14 08:08:54;;;;;;;14.75;9.57;;;12.10;91.10;;;;;;5071197;28;20504;-61
2021/04/14 08:11:31;;;;;;;14.65;8.65;;;12.20;91.10;;;;;;5071930;28;20024;-61
2021/04/14 08:14:08;;;;;;;11.00;9.25;;;12.70;90.10;;;;;;5069822;28;20097;-62
2021/04/14 08:16:36;;;;;;;12.18;8.52;;;13.60;86.90;;;;;;5071665;28;20428;-62
2021/04/14 08:19:22;;;;;;;10.88;7.57;;;14.40;78.60;;;;;;5071317;28;20027;-61
2021/04/14 08:22:04;;;;;;;10.40;8.15;;;14.30;77.20;;;;;;5072149;28;20021;-61
2021/04/14 08:24:47;;;;;;;11.25;6.95;;;12.70;79.80;;;;;;5071896;28;20023;-62
2021/04/14 08:27:25;;;;;;;8.98;7.38;;;12.50;80.20;;;;;;5071382;28;20354;-62
2021/04/14 08:30:21;;;;;;;9.75;7.60;;;12.40;80.10;;;;;;5071478;28;20423;-61
2021/04/14 08:32:58;;;;;;;10.70;6.82;;;13.10;78.50;;;;;;5071349;28;20028;-61
2021/04/14 08:35:40;;;;;;;8.55;6.95;;;12.50;72.40;;;;;;5071363;28;20107;-61
2021/04/14 08:38:14;;;;;;;7.72;6.90;;;12.30;75.20;;;;;;5071513;28;20021;-62
2021/04/14 08:40:55;;;;;;;9.68;7.30;;;12.60;75.60;;;;;;5071126;28;20465;-61
2021/04/14 08:43:25;;;;;;;11.38;7.22;;;12.40;77.00;;;;;;5070910;28;20024;-62
2021/04/14 08:45:51;;;;;;;11.05;7.38;;;12.90;74.80;;;;;;5071825;28;20044;-62
2021/04/14 08:48:31;;;;;;;9.50;7.15;;;13.90;73.20;;;;;;5070823;28;20056;-62
2021/04/14 08:51:01;;;;;;;9.38;7.50;;;13.70;73.30;;;;;;5070827;28;20412;-62
2021/04/14 08:53:42;;;;;;;12.13;7.55;;;13.30;72.00;;;;;;5070875;28;20107;-62
2021/04/14 08:56:08;;;;;;;8.40;6.85;;;14.60;67.90;;;;;;5071111;28;20052;-62
2021/04/14 08:58:34;;;;;;;11.38;7.32;;;14.00;64.50;;;;;;5070642;28;20040;-62
2021/04/14 09:01:01;;;;;;;9.38;7.07;;;14.70;64.10;;;;;;5070745;28;20021;-63
2021/04/14 09:03:31;;;;;;;8.70;6.97;;;14.30;63.20;;;;;;5070679;28;20020;-62
2021/04/14 09:05:58;;;;;;;11.48;6.55;;;13.20;64.30;;;;;;5070995;28;20435;-62
2021/04/14 09:08:30;;;;;;;10.50;6.88;;;12.30;66.50;;;;;;5071106;28;20116;-62
2021/04/14 09:11:01;;;;;;;9.93;8.25;;;11.20;70.50;;;;;;5071194;28;20025;-61
2021/04/14 09:13:33;;;;;;;8.65;7.38;;;10.70;73.90;;;;;;5069486;28;20036;-61
2021/04/14 09:16:02;;;;;;;9.38;6.97;;;11.30;73.90;;;;;;5070986;28;20029;-61
2021/04/14 09:18:42;;;;;;;7.53;6.75;;;11.70;67.70;;;;;;5071096;28;20035;-62
2021/04/14 09:21:14;;;;;;;8.75;6.68;;;11.90;67.10;;;;;;5070807;28;20078;-62
2021/04/14 09:23:54;;;;;;;10.00;6.70;;;13.20;64.00;;;;;;5069605;28;20025;-62
2021/04/14 09:26:34;;;;;;;9.52;7.40;;;12.70;60.40;;;;;;5071446;28;20259;-62
2021/04/14 09:29:01;;;;;;;11.35;7.93;;;12.70;62.00;;;;;;5074900;28;20031;-62
2021/04/14 09:31:39;;;;;;;16.98;8.10;;;12.90;62.20;;;;;;5074904;28;20036;-63
2021/04/14 09:34:22;;;;;;;11.70;7.65;;;13.40;59.60;;;;;;5074990;28;20582;-61
2021/04/14 09:37:18;;;;;;;10.23;7.70;;;12.80;62.00;;;;;;5074529;28;20029;-61
2021/04/14 09:39:51;;;;;;;11.80;8.02;;;12.70;61.00;;;;;;5074545;28;20032;-62
2021/04/14 09:42:22;;;;;;;10.55;7.93;;;12.80;62.00;;;;;;5074465;28;20040;-62
2021/04/14 09:44:55;;;;;;;11.10;8.40;;;14.10;59.70;;;;;;5073964;28;20025;-62
2021/04/14 09:47:23;;;;;;;;;;;15.10;57.10;;;;;;5075055;28;20370;-62
2021/04/14 09:49:50;;;;;;;9.32;7.70;;;14.80;55.60;;;;;;5073893;28;20352;-61
2021/04/14 09:52:49;;;;;;;11.25;7.55;;;14.60;55.80;;;;;;5072451;28;20043;-62
2021/04/14 09:55:39;;;;;;;12.98;8.18;;;14.80;53.60;;;;;;5073992;28;20028;-62
2021/04/14 09:58:08;;;;;;;15.50;8.73;;;14.40;54.50;;;;;;5074013;28;20041;-62
2021/04/14 10:00:40;;;;;;;11.52;8.60;;;14.10;54.90;;;;;;5073782;28;20024;-62
2021/04/14 10:03:32;;;;;;;10.68;7.75;;;14.80;54.60;;;;;;5073669;28;20487;-62
2021/04/14 10:06:14;;;;;;;8.98;7.07;;;15.40;50.50;;;;;;5073656;28;20025;-62
2021/04/14 10:08:43;;;;;;;12.20;7.60;;;15.90;48.80;;;;;;5074258;28;20434;-63
2021/04/14 10:11:08;;;;;;;12.55;7.75;;;16.90;47.90;;;;;;5074145;28;20481;-64
2021/04/14 10:13:35;;;;;;;11.05;7.55;;;17.30;46.00;;;;;;5074556;28;20085;-63
2021/04/14 10:16:02;;;;;;;8.90;7.00;;;18.00;43.80;;;;;;5074053;28;20032;-63
2021/04/14 10:18:33;;;;;;;10.85;8.02;;;16.50;44.30;;;;;;5072059;28;20035;-63
2021/04/14 10:21:17;;;;;;;11.20;7.53;;;16.10;45.60;;;;;;5073364;28;20364;-63
2021/04/14 10:23:44;;;;;;;10.32;7.35;;;17.40;43.60;;;;;;5073544;28;20497;-63
2021/04/14 10:26:12;;;;;;;10.05;7.28;;;18.30;41.60;;;;;;5073632;28;20025;-63
2021/04/14 10:28:41;;;;;;;7.03;6.32;;;18.00;40.70;;;;;;5073738;28;20406;-63
2021/04/14 10:31:12;;;;;;;10.52;7.05;;;18.20;39.00;;;;;;5072377;28;20024;-64
2021/04/14 10:33:40;;;;;;;8.32;7.03;;;18.00;39.90;;;;;;5073772;28;20434;-64
2021/04/14 10:36:19;;;;;;;9.82;6.78;;;18.10;38.40;;;;;;5073762;28;20064;-68
2021/04/14 10:38:45;;;;;;;9.18;6.85;;;17.70;37.20;;;;;;5072304;28;20032;-64
2021/04/14 10:41:23;;;;;;;10.35;7.45;;;17.00;38.60;;;;;;5073178;28;20492;-62
2021/04/14 10:43:50;;;;;;;9.23;7.35;;;16.20;41.00;;;;;;5073021;28;20389;-63
2021/04/14 10:46:26;;;;;;;10.55;7.28;;;17.30;41.50;;;;;;5072120;28;20027;-63
2021/04/14 10:49:00;;;;;;;10.88;7.80;;;17.10;39.80;;;;;;5073197;28;20024;-64
2021/04/14 10:51:32;;;;;;;8.85;7.65;;;17.40;38.70;;;;;;5073072;28;20028;-63
2021/04/14 10:54:00;;;;;;;9.55;7.20;;;18.20;38.80;;;;;;5073163;28;20078;-63
2021/04/14 10:56:31;;;;;;;10.48;7.68;;;18.40;38.90;;;;;;5072934;28;20048;-64
2021/04/14 10:59:00;;;;;;;9.27;7.68;;;18.70;37.70;;;;;;5073133;28;20074;-63
2021/04/14 11:01:46;;;;;;;8.27;7.40;;;18.60;35.90;;;;;;5072907;28;20029;-63
2021/04/14 11:04:15;;;;;;;8.82;7.53;;;18.30;35.00;;;;;;5071992;28;20051;-64
2021/04/14 11:06:46;;;;;;;13.45;7.82;;;18.80;35.60;;;;;;5073050;28;20374;-64
2021/04/14 11:09:13;;;;;;;9.52;7.47;;;18.40;36.10;;;;;;5072898;28;20035;-63
2021/04/14 11:11:40;;;;;;;8.95;7.70;;;17.60;36.10;;;;;;5072646;28;20115;-63
2021/04/14 11:14:09;;;;;;;10.95;8.52;;;16.80;37.60;;;;;;5071634;28;20023;-63
2021/04/14 11:16:41;;;;;;;10.02;8.70;;;15.70;38.70;;;;;;5072740;28;20055;-62
2021/04/14 11:19:18;;;;;;;11.55;8.65;;;14.90;40.70;;;;;;5072276;28;20032;-62
2021/04/14 11:21:44;;;;;;;11.00;8.80;;;14.20;42.20;;;;;;5072378;28;20116;-62
2021/04/14 11:24:16;;;;;;;9.88;8.52;;;14.10;42.80;;;;;;5072569;28;20146;-62
2021/04/14 11:26:52;;;;;;;;;;;14.20;43.60;;;;;;5073709;28;20090;-62
2021/04/14 11:29:24;;;;;;;10.63;9.50;;;14.00;43.80;;;;;;5072298;28;19911;-62
2021/04/14 11:31:51;;;;;;;11.55;9.20;;;14.60;42.20;;;;;;5072213;28;20489;-62
2021/04/14 11:34:32;;;;;;;10.60;8.80;;;14.50;42.00;;;;;;5072092;28;20520;-61
2021/04/14 11:37:16;;;;;;;11.18;8.85;;;14.00;42.90;;;;;;5072580;28;20032;-62
2021/04/14 11:39:54;;;;;;;11.73;9.30;;;13.80;44.20;;;;;;5072672;28;20389;-61
2021/04/14 11:42:22;;;;;;;12.75;9.27;;;13.30;44.90;;;;;;5072406;28;20362;-62
2021/04/14 11:44:59;;;;;;;16.10;9.70;;;13.00;44.20;;;;;;5072344;28;20052;-63
2021/04/14 11:47:34;;;;;;;14.55;10.23;;;13.20;44.10;;;;;;5072429;28;20016;-62
2021/04/14 11:50:16;;;;;;;12.63;9.73;;;13.20;44.60;;;;;;5072248;28;20020;-62
2021/04/14 11:52:54;;;;;;;12.77;10.10;;;12.90;45.20;;;;;;5072285;28;20107;-62
2021/04/14 11:55:19;;;;;;;17.92;10.15;;;12.90;45.80;;;;;;5070564;28;20031;-62
2021/04/14 11:57:46;;;;;;;18.42;10.18;;;12.90;46.70;;;;;;5071897;28;20025;-61
2021/04/14 12:00:21;;;;;;;19.70;10.93;;;12.70;47.60;;;;;;5071753;28;20131;-61
2021/04/14 12:02:49;;;;;;;16.40;11.10;;;12.50;48.50;;;;;;5072096;28;20045;-62
2021/04/14 12:05:15;;;;;;;13.43;10.27;;;12.60;47.90;;;;;;5071849;28;20059;-62
2021/04/14 12:07:42;;;;;;;14.25;10.02;;;12.80;48.60;;;;;;5070576;28;20036;-62
2021/04/14 12:10:09;;;;;;;16.98;10.25;;;12.70;46.70;;;;;;5071868;28;20025;-62
2021/04/14 12:12:34;;;;;;;16.42;10.55;;;12.30;47.70;;;;;;5072078;28;20027;-61
2021/04/14 12:15:00;;;;;;;13.23;9.68;;;12.40;47.40;;;;;;5071755;28;20473;-61
2021/04/14 12:17:26;;;;;;;14.45;10.65;;;12.00;49.00;;;;;;5071657;28;20099;-61
2021/04/14 12:19:52;;;;;;;15.93;10.05;;;12.40;48.70;;;;;;5070402;28;20021;-61
2021/04/14 12:22:18;;;;;;;15.15;9.63;;;12.70;47.90;;;;;;5071488;28;20044;-61
2021/04/14 12:24:45;;;;;;;13.00;9.05;;;13.60;45.60;;;;;;5070477;28;20024;-61
2021/04/14 12:27:11;;;;;;;13.80;9.25;;;14.10;45.60;;;;;;5071237;28;20563;-60
2021/04/14 12:29:37;;;;;;;11.77;9.45;;;15.40;43.70;;;;;;5071272;28;20032;-61
2021/04/14 12:32:04;;;;;;;10.90;9.13;;;16.20;42.40;;;;;;5071045;28;20041;-61
2021/04/14 12:34:30;;;;;;;13.32;9.20;;;17.30;39.90;;;;;;5071119;28;20027;-61
2021/04/14 12:36:55;;;;;;;13.48;9.02;;;18.30;37.90;;;;;;5070403;28;20119;-62
2021/04/14 12:39:21;;;;;;;14.95;9.20;;;18.40;36.90;;;;;;5071147;28;20020;-62
2021/04/14 12:41:46;;;;;;;9.75;8.77;;;18.30;36.40;;;;;;5071053;28;20460;-62
2021/04/14 12:44:12;;;;;;;11.85;8.60;;;18.10;36.80;;;;;;5070781;28;20448;-62
2021/04/14 12:46:40;;;;;;;13.63;8.63;;;17.50;37.90;;;;;;5071067;28;20055;-62
2021/04/14 12:49:11;;;;;;;15.98;9.70;;;16.30;39.70;;;;;;5070725;28;20021;-62
2021/04/14 12:51:40;;;;;;;13.90;9.80;;;15.40;41.90;;;;;;5070999;28;20433;-62
2021/04/14 12:54:12;;;;;;;18.35;11.10;;;15.20;43.30;;;;;;5070659;28;20534;-62